Time;durP1;ratioP1;P1;durP2;ratioP2;P2;SDS_P1;SDS_P2;PMS_P1;PMS_P2;Temp;Humidity;BMP_temperature;BMP_pressure;BME280_temperature;BME280_humidity;BME280_pressure;Samples;Min_cycle;Max_cycle;Signal;HPM_P1;HPM_P2
2022/10/12 00:01:15;;;;;;;;;4.00;3.00;27.30;99.90;;;;;;4984174;28;8838;-72
2022/10/12 00:03:47;;;;;;;;;2.40;2.40;27.20;99.90;;;;;;5015418;28;8822;-75
2022/10/12 00:06:25;;;;;;;;;1.20;1.20;27.10;99.90;;;;;;5000503;28;8828;-71
2022/10/12 00:08:58;;;;;;;;;2.00;2.00;27.10;99.90;;;;;;5015608;28;9595;-73
2022/10/12 00:11:31;;;;;;;;;1.00;1.00;27.00;99.90;;;;;;5017364;28;8880;-73
2022/10/12 00:14:09;;;;;;;;;2.00;2.00;26.90;99.90;;;;;;5000976;28;8857;-72
2022/10/12 00:16:40;;;;;;;;;2.00;2.00;26.90;99.90;;;;;;4997396;28;8828;-71
2022/10/12 00:19:16;;;;;;;;;2.80;2.80;26.90;99.90;;;;;;5020742;28;8842;-72
2022/10/12 00:22:09;;;;;;;;;3.00;3.00;26.90;99.90;;;;;;5019196;28;8848;-72
2022/10/12 00:24:45;;;;;;;;;2.00;2.00;26.80;99.90;;;;;;5002249;28;9584;-73
2022/10/12 00:27:28;;;;;;;;;3.80;3.00;26.80;99.90;;;;;;5019097;28;8830;-70
2022/10/12 00:29:58;;;;;;;;;2.00;2.00;26.70;99.90;;;;;;5018635;28;8826;-72
2022/10/12 00:32:36;;;;;;;;;2.40;2.40;26.70;99.90;;;;;;5018220;28;8860;-71
2022/10/12 00:35:08;;;;;;;;;2.00;2.00;26.70;99.90;;;;;;5010860;28;8866;-74
2022/10/12 00:37:43;;;;;;;;;2.00;2.00;26.60;99.90;;;;;;5023357;28;8819;-72
2022/10/12 00:40:20;;;;;;;;;2.00;2.00;26.60;99.90;;;;;;5019400;28;8818;-71
2022/10/12 00:42:51;;;;;;;;;2.40;2.40;26.60;99.90;;;;;;4996593;28;9552;-69
2022/10/12 00:45:25;;;;;;;;;3.80;2.00;26.50;99.90;;;;;;5012225;28;8830;-69
2022/10/12 00:48:00;;;;;;;;;2.80;2.80;26.40;99.90;;;;;;4998886;28;8853;-71
2022/10/12 00:50:38;;;;;;;;;2.80;2.00;26.40;99.90;;;;;;5017431;28;8849;-71
2022/10/12 00:53:27;;;;;;;;;3.00;3.00;26.50;99.90;;;;;;5014161;28;8850;-72
2022/10/12 00:56:04;;;;;;;;;2.00;2.00;26.50;99.90;;;;;;5013325;28;8814;-69
2022/10/12 00:58:39;;;;;;;;;3.00;3.00;26.40;99.90;;;;;;5018498;28;8838;-69
2022/10/12 01:01:14;;;;;;;;;3.00;3.00;26.30;99.90;;;;;;5016560;28;8823;-71
2022/10/12 01:03:48;;;;;;;;;2.40;2.40;26.30;99.90;;;;;;5016277;28;8941;-72
2022/10/12 01:06:30;;;;;;;;;3.00;3.00;26.20;99.90;;;;;;4998980;28;8842;-74
2022/10/12 01:09:09;;;;;;;;;2.00;2.00;26.20;99.90;;;;;;5011618;28;8843;-72
2022/10/12 01:11:45;;;;;;;;;2.80;2.80;26.30;99.90;;;;;;5011991;28;8839;-71
2022/10/12 01:14:29;;;;;;;;;2.40;2.40;26.20;99.90;;;;;;4997863;28;8850;-71
2022/10/12 01:17:30;;;;;;;;;3.60;2.00;26.10;99.90;;;;;;5033034;28;8862;-72
2022/10/12 01:20:24;;;;;;;;;2.40;2.40;26.00;99.90;;;;;;5002275;28;9035;-75
2022/10/12 01:23:07;;;;;;;;;2.80;2.00;26.10;99.90;;;;;;5016178;28;8838;-73
2022/10/12 01:26:07;;;;;;;;;2.00;2.00;26.10;99.90;;;;;;5011726;28;8829;-71
2022/10/12 01:28:55;;;;;;;;;0.00;0.00;26.00;99.90;;;;;;5010500;28;9590;-71
2022/10/12 01:31:39;;;;;;;;;2.00;2.00;25.90;99.90;;;;;;5004529;28;8857;-72
2022/10/12 01:34:42;;;;;;;;;2.00;2.00;25.90;99.90;;;;;;5017160;28;8837;-72
2022/10/12 01:41:03;;;;;;;;;4.00;3.00;25.90;99.90;;;;;;5011083;28;8857;-73
2022/10/12 01:43:46;;;;;;;;;3.00;3.00;25.90;99.90;;;;;;5002521;28;9845;-75
2022/10/12 01:46:19;;;;;;;;;2.00;2.00;25.70;99.90;;;;;;4968846;28;8868;-69
2022/10/12 01:48:59;;;;;;;;;2.40;2.40;25.70;99.90;;;;;;5000943;28;8885;-69
2022/10/12 01:51:58;;;;;;;;;2.40;2.00;25.70;99.90;;;;;;5000561;28;8860;-70
2022/10/12 01:54:37;;;;;;;;;2.50;2.50;25.70;99.90;;;;;;4994264;28;8822;-70
2022/10/12 01:57:37;;;;;;;;;2.40;2.40;25.70;99.90;;;;;;4976322;28;8844;-73
2022/10/12 02:00:12;;;;;;;;;3.00;3.00;25.60;99.90;;;;;;5008869;28;8870;-73
2022/10/12 02:02:55;;;;;;;;;0.60;0.00;25.50;99.90;;;;;;4960421;28;8850;-72
2022/10/12 02:05:46;;;;;;;;;4.00;4.00;25.50;99.90;;;;;;4972131;28;8861;-70
2022/10/12 02:08:36;;;;;;;;;2.00;2.00;25.50;99.90;;;;;;4990378;28;8861;-71
2022/10/12 02:11:23;;;;;;;;;3.00;3.00;25.50;99.90;;;;;;4998467;28;8794;-73
2022/10/12 02:14:06;;;;;;;;;3.40;3.40;25.40;99.90;;;;;;4964336;28;8898;-73
2022/10/12 02:16:52;;;;;;;;;3.00;3.00;25.40;99.90;;;;;;5010157;28;8828;-70
2022/10/12 02:19:27;;;;;;;;;3.00;3.00;25.40;99.90;;;;;;4998490;28;8842;-71
2022/10/12 02:22:06;;;;;;;;;2.00;2.00;25.40;99.90;;;;;;4978056;28;8868;-73
2022/10/12 02:24:45;;;;;;;;;2.40;2.40;25.40;99.90;;;;;;5008804;28;8841;-74
2022/10/12 02:27:21;;;;;;;;;2.40;2.40;25.50;99.90;;;;;;4959283;28;8838;-74
2022/10/12 02:29:56;;;;;;;;;2.00;2.00;25.40;99.90;;;;;;4973656;28;8849;-71
2022/10/12 02:32:55;;;;;;;;;2.00;2.00;25.30;99.90;;;;;;4963356;28;8857;-70
2022/10/12 02:36:01;;;;;;;;;3.60;3.00;25.30;99.90;;;;;;4994959;28;8849;-72
2022/10/12 02:38:54;;;;;;;;;2.75;2.75;25.30;99.90;;;;;;4996591;28;8818;-73
2022/10/12 02:41:37;;;;;;;;;3.00;3.00;25.10;99.90;;;;;;4993564;28;9576;-74
2022/10/12 02:44:22;;;;;;;;;4.00;3.00;25.10;99.90;;;;;;4992604;28;8865;-72
2022/10/12 02:46:58;;;;;;;;;3.80;3.80;25.20;99.90;;;;;;4996320;28;8817;-71
2022/10/12 02:49:32;;;;;;;;;3.50;3.50;25.30;99.90;;;;;;4981805;28;8879;-71
2022/10/12 02:52:11;;;;;;;;;3.00;3.00;25.30;99.90;;;;;;5012376;28;8900;-74
2022/10/12 02:54:42;;;;;;;;;3.25;3.25;25.30;99.90;;;;;;4992746;28;8812;-74
2022/10/12 02:57:13;;;;;;;;;3.00;3.00;25.30;99.90;;;;;;4983404;28;8891;-75
2022/10/12 02:59:48;;;;;;;;;2.75;2.75;25.30;99.90;;;;;;5001116;28;8840;-75
2022/10/12 03:02:21;;;;;;;;;3.00;3.00;25.40;99.90;;;;;;5013598;28;8822;-74
2022/10/12 03:04:56;;;;;;;;;3.75;2.25;25.40;99.90;;;;;;5021739;28;8823;-70
2022/10/12 03:07:31;;;;;;;;;3.25;3.25;25.40;99.90;;;;;;5014367;28;8867;-71
2022/10/12 03:10:04;;;;;;;;;4.00;4.00;25.40;99.90;;;;;;4993802;28;8822;-71
2022/10/12 03:12:34;;;;;;;;;2.75;2.75;25.30;99.90;;;;;;5013562;28;8844;-71
2022/10/12 03:15:17;;;;;;;;;2.00;2.00;25.30;99.90;;;;;;5012050;28;8850;-73
2022/10/12 03:17:51;;;;;;;;;4.00;4.00;25.20;99.90;;;;;;5023563;28;8833;-75
2022/10/12 03:20:23;;;;;;;;;3.25;3.25;25.30;99.90;;;;;;5008398;28;8850;-71
2022/10/12 03:22:56;;;;;;;;;4.00;4.00;25.20;99.90;;;;;;5004678;28;8868;-72
2022/10/12 03:25:30;;;;;;;;;3.00;3.00;25.30;99.90;;;;;;5015781;28;8857;-71
2022/10/12 03:28:12;;;;;;;;;3.00;3.00;25.20;99.90;;;;;;5002961;28;8885;-71
2022/10/12 03:30:49;;;;;;;;;3.00;3.00;25.10;99.90;;;;;;5017284;28;8875;-72
2022/10/12 03:33:29;;;;;;;;;3.75;3.75;25.10;99.90;;;;;;5020173;28;8811;-71
2022/10/12 03:36:04;;;;;;;;;4.00;4.00;25.10;99.90;;;;;;5018847;28;8812;-72
2022/10/12 03:38:39;;;;;;;;;2.25;2.25;25.10;99.90;;;;;;5016686;28;8849;-71
2022/10/12 03:44:08;;;;;;;;;2.50;2.50;25.10;99.90;;;;;;5003246;28;8878;-72
2022/10/12 03:46:39;;;;;;;;;3.00;3.00;25.10;99.90;;;;;;5019820;28;8840;-71
2022/10/12 03:49:15;;;;;;;;;3.00;3.00;25.10;99.90;;;;;;5000085;28;8998;-71
2022/10/12 03:51:49;;;;;;;;;2.75;2.75;25.00;99.90;;;;;;4987170;28;8874;-70
2022/10/12 03:54:27;;;;;;;;;2.75;2.75;25.00;99.90;;;;;;4985142;28;8932;-70
2022/10/12 03:56:59;;;;;;;;;2.50;2.50;24.90;99.90;;;;;;4999710;28;8832;-69
2022/10/12 03:59:34;;;;;;;;;3.25;3.25;24.90;99.90;;;;;;4980705;28;8854;-70
2022/10/12 04:02:10;;;;;;;;;3.25;3.25;24.80;99.90;;;;;;4982675;28;8874;-71
2022/10/12 04:04:46;;;;;;;;;2.25;2.25;24.90;99.90;;;;;;4998435;28;8858;-70
2022/10/12 04:07:25;;;;;;;;;3.25;3.00;24.80;99.90;;;;;;4982226;28;8876;-70
2022/10/12 04:09:55;;;;;;;;;3.00;3.00;24.80;99.90;;;;;;5005718;28;8832;-70
2022/10/12 04:12:34;;;;;;;;;3.00;3.00;24.70;99.90;;;;;;4983420;28;8899;-70
2022/10/12 04:15:05;;;;;;;;;3.50;3.50;24.70;99.90;;;;;;5009321;28;8842;-72
2022/10/12 04:17:38;;;;;;;;;3.25;3.25;24.70;99.90;;;;;;4996977;28;8856;-73
2022/10/12 04:20:14;;;;;;;;;3.50;3.50;24.60;99.90;;;;;;4993042;28;8860;-73
2022/10/12 04:22:48;;;;;;;;;3.00;3.00;24.70;99.90;;;;;;4992320;28;8877;-71
2022/10/12 04:25:21;;;;;;;;;3.25;3.25;24.80;99.90;;;;;;4993762;28;8867;-73
2022/10/12 04:27:59;;;;;;;;;3.25;3.25;24.70;99.90;;;;;;4992984;28;8871;-68
2022/10/12 04:30:32;;;;;;;;;3.50;3.50;24.60;99.90;;;;;;5006660;28;8857;-71
2022/10/12 04:33:06;;;;;;;;;2.25;2.25;24.60;99.90;;;;;;4990881;28;8843;-72
2022/10/12 04:35:40;;;;;;;;;3.25;3.25;24.60;99.90;;;;;;4975389;28;8861;-73
2022/10/12 04:38:19;;;;;;;;;2.25;2.25;24.60;99.90;;;;;;4964706;28;8819;-69
2022/10/12 04:40:50;;;;;;;;;4.00;2.75;24.60;99.90;;;;;;5003472;28;8878;-68
2022/10/12 04:43:22;;;;;;;;;4.00;4.00;24.50;99.90;;;;;;4982524;28;8860;-68
2022/10/12 04:46:03;;;;;;;;;4.00;4.00;24.50;99.90;;;;;;4993844;28;8853;-70
2022/10/12 04:48:33;;;;;;;;;3.00;3.00;24.60;99.90;;;;;;4978244;28;8816;-69
2022/10/12 04:51:06;;;;;;;;;2.00;2.00;24.50;99.90;;;;;;5005755;28;8842;-69
2022/10/12 04:53:40;;;;;;;;;6.00;4.75;24.50;99.90;;;;;;5010801;28;8846;-69
2022/10/12 04:56:17;;;;;;;;;6.00;4.25;24.50;99.90;;;;;;4999899;28;8826;-69
2022/10/12 04:58:48;;;;;;;;;4.00;4.00;24.50;99.90;;;;;;5003582;28;8977;-68
2022/10/12 05:01:19;;;;;;;;;2.00;2.00;24.50;99.90;;;;;;5011895;28;8838;-71
2022/10/12 05:03:51;;;;;;;;;2.50;2.50;24.50;99.90;;;;;;5001903;28;8838;-68
2022/10/12 05:06:27;;;;;;;;;3.25;3.25;24.40;99.90;;;;;;5012744;28;8814;-72
2022/10/12 05:09:04;;;;;;;;;3.75;3.75;24.40;99.90;;;;;;5006681;28;8830;-72
2022/10/12 05:11:35;;;;;;;;;3.75;3.75;24.40;99.90;;;;;;5008511;28;8872;-70
2022/10/12 05:14:16;;;;;;;;;5.75;5.75;24.30;99.90;;;;;;4996035;28;8830;-69
2022/10/12 05:16:46;;;;;;;;;4.75;4.75;24.40;99.90;;;;;;4993328;28;8857;-70
2022/10/12 05:19:39;;;;;;;;;4.25;4.25;24.30;99.90;;;;;;5000401;28;8861;-71
2022/10/12 05:22:10;;;;;;;;;5.00;5.00;24.20;99.90;;;;;;5000354;28;9666;-69
2022/10/12 05:24:45;;;;;;;;;5.00;5.00;24.20;99.90;;;;;;4997871;28;8870;-69
2022/10/12 05:27:21;;;;;;;;;4.75;4.75;24.30;99.90;;;;;;5016564;28;8829;-69
2022/10/12 05:30:17;;;;;;;;;4.00;4.00;24.30;99.90;;;;;;5017391;28;8849;-69
2022/10/12 05:32:53;;;;;;;;;5.25;5.25;24.20;99.90;;;;;;5014788;28;8849;-70
2022/10/12 05:35:28;;;;;;;;;4.00;4.00;24.20;99.90;;;;;;5010441;28;8893;-69
2022/10/12 05:37:59;;;;;;;;;4.75;4.75;24.20;99.90;;;;;;5001361;28;9000;-69
2022/10/12 05:40:30;;;;;;;;;5.00;4.75;24.00;99.90;;;;;;5002913;28;8838;-78
2022/10/12 05:43:10;;;;;;;;;4.50;4.50;24.10;99.90;;;;;;4997468;28;8851;-71
2022/10/12 05:45:39;;;;;;;;;5.00;5.00;24.10;99.90;;;;;;4998197;28;8849;-69
2022/10/12 05:48:13;;;;;;;;;3.75;3.75;24.00;99.90;;;;;;5006904;28;8869;-69
2022/10/12 05:50:53;;;;;;;;;3.50;3.50;24.00;99.90;;;;;;4997194;28;8925;-69
2022/10/12 05:53:23;;;;;;;;;3.50;3.50;24.00;99.90;;;;;;5012645;28;8817;-69
2022/10/12 05:56:00;;;;;;;;;6.00;5.00;24.00;99.90;;;;;;4994860;28;8860;-72
2022/10/12 05:58:35;;;;;;;;;3.50;3.50;24.00;99.90;;;;;;5000720;28;8809;-71
2022/10/12 06:01:12;;;;;;;;;4.25;4.25;23.90;99.90;;;;;;4996167;28;8842;-70
2022/10/12 06:03:43;;;;;;;;;6.50;4.00;23.80;99.90;;;;;;4999276;28;8839;-70
2022/10/12 06:06:15;;;;;;;;;2.00;2.00;23.90;99.90;;;;;;4999038;28;9569;-68
2022/10/12 06:08:46;;;;;;;;;5.25;5.25;23.90;99.90;;;;;;4983706;28;8837;-68
2022/10/12 06:11:19;;;;;;;;;4.00;4.00;23.90;99.90;;;;;;4997077;28;8840;-68
2022/10/12 06:13:54;;;;;;;;;4.00;4.00;23.80;99.90;;;;;;4990689;28;8829;-68
2022/10/12 06:16:26;;;;;;;;;4.00;4.00;23.90;99.90;;;;;;4997881;28;8848;-67
2022/10/12 06:19:00;;;;;;;;;4.25;4.25;23.80;99.90;;;;;;4982686;28;8816;-68
2022/10/12 06:21:33;;;;;;;;;3.25;3.25;23.70;99.90;;;;;;4979987;28;8831;-73
2022/10/12 06:24:13;;;;;;;;;4.00;4.00;23.70;99.90;;;;;;4981532;28;8836;-72
2022/10/12 06:26:56;;;;;;;;;4.00;3.00;23.80;99.90;;;;;;4995154;28;8824;-72
2022/10/12 06:29:31;;;;;;;;;4.50;4.00;23.80;99.90;;;;;;4978248;28;8846;-71
2022/10/12 06:32:05;;;;;;;;;3.00;3.00;23.70;99.90;;;;;;4992339;28;8842;-70
2022/10/12 06:34:40;;;;;;;;;8.50;5.00;23.70;99.90;;;;;;4966961;28;8863;-69
2022/10/12 06:37:13;;;;;;;;;5.50;5.50;23.70;99.90;;;;;;4982112;28;8871;-70
2022/10/12 06:40:07;;;;;;;;;4.00;4.00;23.60;99.90;;;;;;4998178;28;8848;-71
2022/10/12 06:42:42;;;;;;;;;2.50;2.50;23.70;99.90;;;;;;4996308;28;8868;-73
2022/10/12 06:45:16;;;;;;;;;3.00;3.00;23.70;99.90;;;;;;4992387;28;8872;-72
2022/10/12 06:47:55;;;;;;;;;4.00;4.00;23.60;99.90;;;;;;4976191;28;8852;-71
2022/10/12 06:50:33;;;;;;;;;4.00;4.00;23.60;99.90;;;;;;4982299;28;8850;-71
2022/10/12 06:53:07;;;;;;;;;4.25;4.25;23.50;99.90;;;;;;5009937;28;8842;-71
2022/10/12 06:55:41;;;;;;;;;4.75;4.75;23.60;99.90;;;;;;5014842;28;8877;-71
2022/10/12 06:58:13;;;;;;;;;3.00;3.00;23.50;99.90;;;;;;5005196;28;8858;-70
2022/10/12 07:00:46;;;;;;;;;4.75;4.50;23.60;99.90;;;;;;5013373;28;8875;-71
2022/10/12 07:03:17;;;;;;;;;5.00;5.00;23.50;99.90;;;;;;5020835;28;8854;-72
2022/10/12 07:05:53;;;;;;;;;4.75;4.75;23.50;99.90;;;;;;5007705;28;8858;-72
2022/10/12 07:08:40;;;;;;;;;4.00;4.00;23.50;99.90;;;;;;5003647;28;8843;-71
2022/10/12 07:11:19;;;;;;;;;2.25;2.25;23.50;99.90;;;;;;5003083;28;8857;-72
2022/10/12 07:14:09;;;;;;;;;4.75;4.75;23.40;99.90;;;;;;5010184;28;8858;-71
2022/10/12 07:16:50;;;;;;;;;5.00;4.00;23.30;99.90;;;;;;5023147;28;8839;-71
2022/10/12 07:19:32;;;;;;;;;5.00;5.00;23.20;99.90;;;;;;5019413;28;8828;-71
2022/10/12 07:22:02;;;;;;;;;4.25;4.25;23.30;99.90;;;;;;5029653;28;8864;-70
2022/10/12 07:24:37;;;;;;;;;3.25;3.25;23.30;99.90;;;;;;4983223;28;8860;-69
2022/10/12 07:27:13;;;;;;;;;4.50;4.50;23.30;99.90;;;;;;5006556;28;8838;-71
2022/10/12 07:29:51;;;;;;;;;4.75;3.50;23.30;99.90;;;;;;4998347;28;8855;-69
2022/10/12 07:32:22;;;;;;;;;4.75;4.75;23.10;99.90;;;;;;5003860;28;8850;-68
2022/10/12 07:34:58;;;;;;;;;4.00;4.00;23.10;99.90;;;;;;5017922;28;9544;-68
2022/10/12 07:37:32;;;;;;;;;5.00;4.25;23.20;99.90;;;;;;5003801;28;8846;-70
2022/10/12 07:40:13;;;;;;;;;2.75;2.75;23.10;99.90;;;;;;5029787;28;8845;-71
2022/10/12 07:42:47;;;;;;;;;6.25;4.75;23.20;99.90;;;;;;5001852;28;9857;-69
2022/10/12 07:45:40;;;;;;;;;5.00;3.50;23.10;99.90;;;;;;4998591;28;8839;-72
2022/10/12 07:48:11;;;;;;;;;3.50;3.50;23.20;99.90;;;;;;5004834;28;8842;-70
2022/10/12 07:50:45;;;;;;;;;4.00;4.00;23.10;99.90;;;;;;4995642;28;9889;-71
2022/10/12 07:53:22;;;;;;;;;4.25;4.25;23.10;99.90;;;;;;4982441;28;8858;-74
2022/10/12 07:56:00;;;;;;;;;4.25;4.25;23.00;99.90;;;;;;4996504;28;8836;-69
2022/10/12 07:58:41;;;;;;;;;3.00;3.00;23.00;99.90;;;;;;4947632;28;8862;-69
2022/10/12 08:01:15;;;;;;;;;4.00;4.00;23.00;99.90;;;;;;5004634;28;8840;-69
2022/10/12 08:03:49;;;;;;;;;3.75;3.75;23.00;99.90;;;;;;4975046;28;8815;-70
2022/10/12 08:06:21;;;;;;;;;4.00;4.00;23.00;99.90;;;;;;4983407;28;8847;-68
2022/10/12 08:08:57;;;;;;;;;6.00;4.00;23.00;99.90;;;;;;4982268;28;8864;-69
2022/10/12 08:11:31;;;;;;;;;3.50;3.50;22.90;99.90;;;;;;4997041;28;9543;-72
2022/10/12 08:14:23;;;;;;;;;3.75;3.75;22.90;99.90;;;;;;4992255;28;8842;-72
2022/10/12 08:16:56;;;;;;;;;6.25;6.00;22.90;99.90;;;;;;4965108;28;8860;-69
2022/10/12 08:19:27;;;;;;;;;5.00;5.00;23.00;99.90;;;;;;4977843;28;9880;-68
2022/10/12 08:22:04;;;;;;;;;5.00;5.00;23.00;99.90;;;;;;4983582;28;8856;-69
2022/10/12 08:24:37;;;;;;;;;6.00;4.00;22.90;99.90;;;;;;4999998;28;8832;-69
2022/10/12 08:27:09;;;;;;;;;4.00;4.00;23.00;99.90;;;;;;4986658;28;8873;-72
2022/10/12 08:29:45;;;;;;;;;7.00;7.00;23.00;99.90;;;;;;4995815;28;8843;-74
2022/10/12 08:32:16;;;;;;;;;6.75;4.75;23.00;99.90;;;;;;4985444;28;8856;-71
2022/10/12 08:34:47;;;;;;;;;6.00;6.00;23.00;99.90;;;;;;4981297;28;8875;-71
2022/10/12 08:37:20;;;;;;;;;7.00;7.00;22.90;99.90;;;;;;5002142;28;8855;-72
2022/10/12 08:39:52;;;;;;;;;8.75;7.75;22.90;99.90;;;;;;4964812;28;8855;-72
2022/10/12 08:42:55;;;;;;;;;8.75;8.75;22.90;99.90;;;;;;4982983;28;8859;-69
2022/10/12 08:45:53;;;;;;;;;8.75;8.75;22.90;99.90;;;;;;4991427;28;8844;-68
2022/10/12 08:48:53;;;;;;;;;10.00;10.00;22.90;99.90;;;;;;4992427;28;8865;-69
2022/10/12 08:51:28;;;;;;;;;7.25;7.25;22.90;99.90;;;;;;5005326;28;8868;-71
2022/10/12 08:54:15;;;;;;;;;7.25;7.25;22.90;99.90;;;;;;5023512;28;8820;-71
2022/10/12 08:56:48;;;;;;;;;8.00;8.00;22.90;99.90;;;;;;5012704;28;8834;-69
2022/10/12 08:59:28;;;;;;;;;8.00;8.00;23.00;99.90;;;;;;5014179;28;8863;-69
2022/10/12 09:02:37;;;;;;;;;7.00;7.00;23.00;99.90;;;;;;5001688;28;9756;-70
2022/10/12 09:05:30;;;;;;;;;8.75;8.75;23.00;99.90;;;;;;5017109;28;8819;-73
2022/10/12 09:08:30;;;;;;;;;7.75;7.75;22.90;99.90;;;;;;4985229;28;8819;-73
2022/10/12 09:11:21;;;;;;;;;9.50;9.00;23.00;99.90;;;;;;5014914;28;8836;-71
2022/10/12 09:14:00;;;;;;;;;7.75;7.75;22.90;99.90;;;;;;5003983;28;8901;-71
2022/10/12 09:16:35;;;;;;;;;9.25;9.25;22.90;99.90;;;;;;5001299;28;8909;-69
2022/10/12 09:19:40;;;;;;;;;5.00;4.75;22.90;99.90;;;;;;5001659;28;8796;-69
2022/10/12 09:22:19;;;;;;;;;6.75;6.75;22.90;99.90;;;;;;5030087;28;8834;-70
2022/10/12 09:24:55;;;;;;;;;6.00;6.00;22.90;99.90;;;;;;5001377;28;8840;-69
2022/10/12 09:27:31;;;;;;;;;5.50;5.50;23.00;99.90;;;;;;5015873;28;8886;-72
2022/10/12 09:30:15;;;;;;;;;7.00;7.00;22.90;99.90;;;;;;5015492;28;8848;-72
2022/10/12 09:33:07;;;;;;;;;7.00;6.00;23.00;99.90;;;;;;5015944;28;8844;-73
2022/10/12 09:35:41;;;;;;;;;5.75;5.75;23.00;99.90;;;;;;5024469;28;8851;-73
2022/10/12 09:38:34;;;;;;;;;6.25;6.00;23.00;99.90;;;;;;5003277;28;8846;-73
2022/10/12 09:41:25;;;;;;;;;4.75;4.75;22.90;99.90;;;;;;5002846;28;8945;-71
2022/10/12 09:44:03;;;;;;;;;4.50;4.50;23.00;99.90;;;;;;5013521;28;8832;-71
2022/10/12 09:46:55;;;;;;;;;5.00;5.00;22.90;99.90;;;;;;5029920;28;8858;-70
2022/10/12 09:49:46;;;;;;;;;4.25;4.25;23.00;99.90;;;;;;5017050;28;8875;-69
2022/10/12 09:52:23;;;;;;;;;6.00;6.00;22.90;99.90;;;;;;4995968;28;8876;-69
2022/10/12 09:55:02;;;;;;;;;4.25;4.25;23.00;99.90;;;;;;4979226;28;8834;-69
2022/10/12 09:57:40;;;;;;;;;4.00;4.00;22.90;99.90;;;;;;4997935;28;8834;-72
2022/10/12 10:00:32;;;;;;;;;4.75;4.75;22.90;99.90;;;;;;4993655;28;8870;-72
2022/10/12 10:03:26;;;;;;;;;5.00;5.00;22.80;99.90;;;;;;4979110;28;8857;-73
2022/10/12 10:06:08;;;;;;;;;4.00;4.00;22.80;99.90;;;;;;4991765;28;8813;-69
2022/10/12 10:08:47;;;;;;;;;4.75;4.75;22.80;99.90;;;;;;4982634;28;8887;-70
2022/10/12 10:11:27;;;;;;;;;4.25;4.25;22.80;99.90;;;;;;4981686;28;8901;-69
2022/10/12 10:14:01;;;;;;;;;4.00;4.00;22.80;99.90;;;;;;4975676;28;8805;-70
2022/10/12 10:16:31;;;;;;;;;6.50;6.00;22.80;99.90;;;;;;4981432;28;8896;-71
2022/10/12 10:19:01;;;;;;;;;5.00;5.00;22.70;99.90;;;;;;4966369;28;8846;-72
2022/10/12 10:21:41;;;;;;;;;6.75;6.75;22.70;99.90;;;;;;4979149;28;8860;-71
2022/10/12 10:24:34;;;;;;;;;5.00;5.00;22.70;99.90;;;;;;4984733;28;8880;-71
2022/10/12 10:27:26;;;;;;;;;5.50;5.50;22.70;99.90;;;;;;5003352;28;8842;-71
2022/10/12 10:30:31;;;;;;;;;3.50;3.50;22.70;99.90;;;;;;4981758;28;9622;-71
2022/10/12 10:33:18;;;;;;;;;5.25;5.25;22.70;99.90;;;;;;4978253;28;9000;-73
2022/10/12 10:36:03;;;;;;;;;5.00;5.00;22.70;99.90;;;;;;4970252;28;8849;-68
2022/10/12 10:39:05;;;;;;;;;4.25;4.25;22.60;99.90;;;;;;4995990;28;8810;-71
2022/10/12 10:41:42;;;;;;;;;6.25;4.75;22.70;99.90;;;;;;5004625;28;8816;-71
2022/10/12 10:44:36;;;;;;;;;5.25;5.25;22.60;99.90;;;;;;4998407;28;8880;-71
2022/10/12 10:47:11;;;;;;;;;4.33;4.33;22.60;99.90;;;;;;4967882;28;8871;-73
2022/10/12 10:49:45;;;;;;;;;6.00;6.00;22.50;99.90;;;;;;4981388;28;9570;-73
2022/10/12 10:52:31;;;;;;;;;7.75;6.00;22.50;99.90;;;;;;4965725;28;8836;-71
2022/10/12 10:55:45;;;;;;;;;5.00;5.00;22.50;99.90;;;;;;4999227;28;8825;-72
2022/10/12 10:58:46;;;;;;;;;5.25;5.25;22.50;99.90;;;;;;5000613;28;8848;-71
2022/10/12 11:01:31;;;;;;;;;4.00;4.00;22.40;99.90;;;;;;4997458;28;8858;-72
2022/10/12 11:04:22;;;;;;;;;5.25;5.25;22.40;99.90;;;;;;4998220;28;8878;-72
2022/10/12 11:07:23;;;;;;;;;4.25;4.25;22.40;99.90;;;;;;5004090;28;9525;-68
2022/10/12 11:10:08;;;;;;;;;3.75;3.75;22.30;99.90;;;;;;4977064;28;8836;-69
2022/10/12 11:12:48;;;;;;;;;3.25;3.25;22.30;99.90;;;;;;5002700;28;8838;-71
2022/10/12 11:15:41;;;;;;;;;5.00;5.00;22.40;99.90;;;;;;4999888;28;8844;-71
2022/10/12 11:18:30;;;;;;;;;4.50;4.50;22.40;99.90;;;;;;5010714;28;8984;-72
2022/10/12 11:21:12;;;;;;;;;7.50;5.00;22.40;99.90;;;;;;4989216;28;8862;-69
2022/10/12 11:24:29;;;;;;;;;4.50;4.50;22.50;99.90;;;;;;5000470;28;8853;-68
2022/10/12 11:27:27;;;;;;;;;4.50;4.50;22.50;99.90;;;;;;5000948;28;8856;-72
2022/10/12 11:30:40;;;;;;;;;6.50;5.75;22.60;99.90;;;;;;5008310;28;8840;-71
2022/10/12 11:33:37;;;;;;;;;4.75;4.75;22.60;99.90;;;;;;4989419;28;8870;-70
2022/10/12 11:36:21;;;;;;;;;4.50;4.50;22.70;99.90;;;;;;5009243;28;8884;-69
2022/10/12 11:39:00;;;;;;;;;5.75;5.75;22.70;99.90;;;;;;5011102;28;8818;-68
2022/10/12 11:41:46;;;;;;;;;3.00;3.00;22.70;99.90;;;;;;5002584;28;8842;-69
2022/10/12 11:44:46;;;;;;;;;5.00;5.00;22.70;99.90;;;;;;5004877;28;9577;-69
2022/10/12 11:47:25;;;;;;;;;4.25;4.25;22.70;99.90;;;;;;4989546;28;8843;-73
2022/10/12 11:50:26;;;;;;;;;3.75;3.75;22.70;99.90;;;;;;4986384;28;8809;-72
2022/10/12 11:53:06;;;;;;;;;4.50;4.50;22.70;99.90;;;;;;4999946;28;8818;-69
2022/10/12 11:56:00;;;;;;;;;4.50;4.50;22.80;99.90;;;;;;5017180;28;8860;-71
2022/10/12 11:58:36;;;;;;;;;5.50;5.50;22.70;99.90;;;;;;5017622;28;8834;-68
2022/10/12 12:01:38;;;;;;;;;6.75;5.50;22.70;99.90;;;;;;4999474;28;8869;-68
2022/10/12 12:04:35;;;;;;;;;6.25;6.25;22.70;99.90;;;;;;5017144;28;8829;-68
2022/10/12 12:07:46;;;;;;;;;5.75;5.75;22.70;99.90;;;;;;4984591;28;8830;-70
2022/10/12 12:10:30;;;;;;;;;4.50;4.50;22.60;99.90;;;;;;5018127;28;9563;-69
2022/10/12 12:13:17;;;;;;;;;5.25;5.25;22.60;99.90;;;;;;5019063;28;8812;-67
2022/10/12 12:16:01;;;;;;;;;6.00;6.00;22.60;99.90;;;;;;5017589;28;9594;-69
2022/10/12 12:18:51;;;;;;;;;5.00;5.00;22.60;99.90;;;;;;5019407;28;8842;-68
2022/10/12 12:21:24;;;;;;;;;6.00;6.00;22.60;99.90;;;;;;4984672;28;8902;-70
2022/10/12 12:23:58;;;;;;;;;4.75;4.75;22.60;99.90;;;;;;5017370;28;8853;-69
2022/10/12 12:26:32;;;;;;;;;7.75;6.00;22.60;99.90;;;;;;5014165;28;8995;-70
2022/10/12 12:29:15;;;;;;;;;5.75;5.75;22.60;99.90;;;;;;5001893;28;9568;-69
2022/10/12 12:31:58;;;;;;;;;6.00;6.00;22.50;99.90;;;;;;5022273;28;8829;-73
2022/10/12 12:34:28;;;;;;;;;5.50;5.50;22.60;99.90;;;;;;5004622;28;8853;-74
2022/10/12 12:37:12;;;;;;;;;5.50;5.50;22.50;99.90;;;;;;5006355;28;8842;-72
2022/10/12 12:39:45;;;;;;;;;5.75;5.75;22.50;99.90;;;;;;5026222;28;8832;-72
2022/10/12 12:42:31;;;;;;;;;5.25;5.25;22.50;99.90;;;;;;5006935;28;8822;-72
2022/10/12 12:45:33;;;;;;;;;4.00;4.00;22.50;99.90;;;;;;5017796;28;8842;-72
2022/10/12 12:48:09;;;;;;;;;7.25;7.25;22.40;99.90;;;;;;5021798;28;8864;-73
2022/10/12 12:50:40;;;;;;;;;7.50;6.50;22.50;99.90;;;;;;5020052;28;8837;-70
2022/10/12 12:53:21;;;;;;;;;6.00;6.00;22.50;99.90;;;;;;4998139;28;8872;-69
2022/10/12 12:56:17;;;;;;;;;5.00;5.00;22.50;99.90;;;;;;5026025;28;8836;-68
2022/10/12 12:59:32;;;;;;;;;4.75;4.75;22.50;99.90;;;;;;5027667;28;8878;-69
2022/10/12 13:02:41;;;;;;;;;2.50;2.50;22.50;99.90;;;;;;5012394;28;8838;-68
2022/10/12 13:05:47;;;;;;;;;7.00;7.00;22.50;99.90;;;;;;5000033;28;8828;-70
2022/10/12 13:08:30;;;;;;;;;5.50;5.50;22.50;99.90;;;;;;4985690;28;8856;-71
2022/10/12 13:11:45;;;;;;;;;7.00;5.25;22.50;99.90;;;;;;5015840;28;8834;-68
2022/10/12 13:14:44;;;;;;;;;6.50;6.50;22.60;99.90;;;;;;4996288;28;8839;-69
2022/10/12 13:17:28;;;;;;;;;5.75;5.75;22.70;99.90;;;;;;4998567;28;8864;-68
2022/10/12 13:20:20;;;;;;;;;6.75;6.75;22.80;99.90;;;;;;4993375;28;8894;-67
2022/10/12 13:23:03;;;;;;;;;6.00;6.00;22.80;99.90;;;;;;5000820;28;8828;-72
2022/10/12 13:25:47;;;;;;;;;6.50;6.50;22.80;99.90;;;;;;5029321;28;8893;-68
2022/10/12 13:28:33;;;;;;;;;6.00;6.00;22.90;99.90;;;;;;5016971;28;8913;-68
2022/10/12 13:31:20;;;;;;;;;7.75;7.75;23.00;99.90;;;;;;5018271;28;8877;-69
2022/10/12 13:34:19;;;;;;;;;6.75;6.75;23.00;99.90;;;;;;5016163;28;9567;-69
2022/10/12 13:37:01;;;;;;;;;8.50;8.50;23.00;99.90;;;;;;4996362;28;8857;-70
2022/10/12 13:39:43;;;;;;;;;8.50;7.75;23.10;99.90;;;;;;5012864;28;8852;-72
2022/10/12 13:42:22;;;;;;;;;7.00;7.00;23.10;99.90;;;;;;5017173;28;8816;-68
2022/10/12 13:44:56;;;;;;;;;5.75;5.25;23.20;99.90;;;;;;5000879;28;8843;-69
2022/10/12 13:47:32;;;;;;;;;5.50;5.50;23.20;99.90;;;;;;4999554;28;8831;-72
2022/10/12 13:50:19;;;;;;;;;6.75;6.75;23.30;99.90;;;;;;5013947;28;8839;-72
2022/10/12 13:52:54;;;;;;;;;5.50;5.50;23.40;99.90;;;;;;5010160;28;9518;-71
2022/10/12 13:56:07;;;;;;;;;7.75;7.75;23.40;99.90;;;;;;5002919;28;8829;-69
2022/10/12 13:58:39;;;;;;;;;8.00;8.00;23.40;99.90;;;;;;5019418;28;8830;-68
2022/10/12 14:01:13;;;;;;;;;5.75;5.75;23.40;99.90;;;;;;5014266;28;8810;-69
2022/10/12 14:03:45;;;;;;;;;4.00;4.00;23.40;99.90;;;;;;5001375;28;8875;-68
2022/10/12 14:06:33;;;;;;;;;6.00;6.00;23.40;99.90;;;;;;5017116;28;8853;-70
2022/10/12 14:09:18;;;;;;;;;5.25;5.25;23.50;99.90;;;;;;5001561;28;8839;-69
2022/10/12 14:11:50;;;;;;;;;6.25;6.25;23.50;99.90;;;;;;5005080;28;8849;-71
2022/10/12 14:14:37;;;;;;;;;8.00;8.00;23.50;99.90;;;;;;4993436;28;8854;-71
2022/10/12 14:17:18;;;;;;;;;5.00;5.00;23.50;99.90;;;;;;5003998;28;8814;-73